TimeCDT,TemperatureF,Dew PointF,Humidity,Sea Level PressureIn,VisibilityMPH,Wind Direction,Wind SpeedMPH,Gust SpeedMPH,PrecipitationIn,Events,Conditions,WindDirDegrees,DateUTC
12:15 AM,69.8,62.6,78,29.74,10.0,South,9.2,-,N/A,,Overcast,180,2013-03-18 05:15:00
12:55 AM,68.0,60.8,78,29.74,10.0,South,6.9,-,N/A,,Overcast,180,2013-03-18 05:55:00
1:15 AM,68.0,60.8,78,29.75,10.0,South,8.1,-,N/A,,Overcast,180,2013-03-18 06:15:00
1:55 AM,68.0,62.6,83,29.75,10.0,South,9.2,-,N/A,,Overcast,180,2013-03-18 06:55:00
2:15 AM,68.0,62.6,83,29.75,10.0,South,9.2,-,N/A,,Overcast,190,2013-03-18 07:15:00
2:35 AM,68.0,62.6,83,29.75,10.0,South,6.9,-,N/A,,Overcast,190,2013-03-18 07:35:00
2:55 AM,68.0,62.6,83,29.76,10.0,South,8.1,-,N/A,,Overcast,190,2013-03-18 07:55:00
3:15 AM,68.0,62.6,83,29.75,10.0,South,8.1,-,N/A,,Overcast,180,2013-03-18 08:15:00
3:35 AM,68.0,62.6,83,29.75,10.0,South,10.4,-,N/A,,Overcast,180,2013-03-18 08:35:00
3:55 AM,68.0,60.8,78,29.75,10.0,South,6.9,-,N/A,,Overcast,190,2013-03-18 08:55:00
4:15 AM,66.2,60.8,83,29.76,10.0,SSW,5.8,-,N/A,,Overcast,200,2013-03-18 09:15:00
4:35 AM,64.4,60.8,88,29.73,10.0,SSE,11.5,-,N/A,,Overcast,160,2013-03-18 09:35:00
4:55 AM,64.4,60.8,88,29.71,7.0,South,10.4,-,N/A,,Scattered Clouds,170,2013-03-18 09:55:00
5:15 AM,64.4,60.8,88,29.72,7.0,South,9.2,-,N/A,,Scattered Clouds,180,2013-03-18 10:15:00
5:35 AM,64.4,60.8,88,29.73,7.0,South,11.5,-,N/A,,Mostly Cloudy,180,2013-03-18 10:35:00
5:55 AM,64.4,60.8,88,29.74,10.0,South,12.7,-,N/A,,Overcast,180,2013-03-18 10:55:00
6:15 AM,64.4,60.8,88,29.74,10.0,SSE,10.4,20.7,N/A,,Overcast,160,2013-03-18 11:15:00
6:35 AM,64.4,60.8,88,29.75,10.0,South,12.7,-,N/A,,Overcast,180,2013-03-18 11:35:00
6:55 AM,64.4,60.8,88,29.75,10.0,South,12.7,-,N/A,,Overcast,180,2013-03-18 11:55:00
7:15 AM,64.4,60.8,88,29.76,10.0,South,12.7,20.7,N/A,,Overcast,180,2013-03-18 12:15:00
7:35 AM,64.4,60.8,88,29.76,7.0,South,13.8,20.7,N/A,,Overcast,180,2013-03-18 12:35:00
7:55 AM,64.4,60.8,88,29.77,7.0,South,13.8,19.6,N/A,,Overcast,180,2013-03-18 12:55:00
8:15 AM,66.2,60.8,83,29.76,5.0,South,12.7,19.6,N/A,,Overcast,170,2013-03-18 13:15:00
8:35 AM,68.0,60.8,78,29.77,7.0,South,11.5,21.9,N/A,,Overcast,190,2013-03-18 13:35:00
8:55 AM,68.0,60.8,78,29.77,7.0,South,10.4,20.7,N/A,,Overcast,180,2013-03-18 13:55:00
9:15 AM,68.0,60.8,78,29.77,7.0,South,9.2,17.3,N/A,,Overcast,180,2013-03-18 14:15:00
9:35 AM,69.8,62.6,78,29.78,7.0,South,11.5,17.3,N/A,,Overcast,190,2013-03-18 14:35:00
9:55 AM,69.8,62.6,78,29.78,7.0,South,13.8,21.9,N/A,,Overcast,190,2013-03-18 14:55:00
10:15 AM,69.8,62.6,78,29.81,7.0,WSW,10.4,18.4,N/A,,Overcast,250,2013-03-18 15:15:00
10:35 AM,69.8,62.6,78,29.83,7.0,WSW,5.8,-,N/A,,Overcast,250,2013-03-18 15:35:00
10:55 AM,69.8,62.6,78,29.83,4.0,SW,5.8,-,N/A,,Overcast,230,2013-03-18 15:55:00
11:15 AM,69.8,64.4,83,29.83,7.0,SW,6.9,-,N/A,,Overcast,220,2013-03-18 16:15:00
11:35 AM,69.8,62.6,78,29.83,7.0,WSW,6.9,-,N/A,,Overcast,250,2013-03-18 16:35:00
11:55 AM,71.6,62.6,73,29.82,10.0,SSW,8.1,-,N/A,,Overcast,200,2013-03-18 16:55:00
12:15 PM,71.6,62.6,73,29.82,10.0,West,10.4,-,N/A,,Overcast,270,2013-03-18 17:15:00
12:35 PM,71.6,60.8,69,29.82,10.0,West,8.1,-,N/A,,Overcast,270,2013-03-18 17:35:00
12:55 PM,71.6,60.8,69,29.82,10.0,NW,10.4,19.6,N/A,,Overcast,310,2013-03-18 17:55:00
1:15 PM,69.8,60.8,73,29.83,10.0,WNW,11.5,-,N/A,,Mostly Cloudy,300,2013-03-18 18:15:00
1:35 PM,73.4,60.8,65,29.82,10.0,NW,10.4,-,N/A,,Scattered Clouds,320,2013-03-18 18:35:00
1:55 PM,75.2,60.8,61,29.82,10.0,WNW,12.7,18.4,N/A,,Clear,300,2013-03-18 18:55:00
2:15 PM,71.6,59.0,64,29.82,10.0,NNW,11.5,18.4,N/A,,Scattered Clouds,330,2013-03-18 19:15:00
2:35 PM,71.6,59.0,64,29.81,10.0,NW,12.7,18.4,N/A,,Scattered Clouds,310,2013-03-18 19:35:00
2:55 PM,71.6,57.2,60,29.81,10.0,WNW,12.7,17.3,N/A,,Scattered Clouds,290,2013-03-18 19:55:00
3:15 PM,71.6,57.2,60,29.81,10.0,WNW,11.5,-,N/A,,Scattered Clouds,300,2013-03-18 20:15:00
3:35 PM,73.4,57.2,57,29.81,10.0,WNW,11.5,16.1,N/A,,Scattered Clouds,300,2013-03-18 20:35:00
3:55 PM,75.2,55.4,50,29.81,10.0,NNW,10.4,18.4,N/A,,Scattered Clouds,340,2013-03-18 20:55:00
4:15 PM,71.6,55.4,57,29.82,10.0,WNW,16.1,-,N/A,,Scattered Clouds,300,2013-03-18 21:15:00
4:35 PM,71.6,55.4,57,29.83,10.0,NW,9.2,13.8,N/A,,Scattered Clouds,320,2013-03-18 21:35:00
4:55 PM,71.6,53.6,53,29.83,10.0,WNW,11.5,-,N/A,,Clear,300,2013-03-18 21:55:00
5:15 PM,73.4,53.6,50,29.83,10.0,NNW,12.7,16.1,N/A,,Clear,330,2013-03-18 22:15:00
5:35 PM,71.6,51.8,50,29.84,10.0,NW,12.7,16.1,N/A,,Clear,310,2013-03-18 22:35:00
5:55 PM,71.6,51.8,50,29.85,10.0,North,6.9,17.3,N/A,,Clear,350,2013-03-18 22:55:00
6:15 PM,71.6,51.8,50,29.85,10.0,North,8.1,-,N/A,,Clear,350,2013-03-18 23:15:00
6:35 PM,69.8,50.0,49,29.87,10.0,NNW,12.7,-,N/A,,Clear,340,2013-03-18 23:35:00
6:55 PM,69.8,50.0,49,29.88,10.0,NNW,10.4,-,N/A,,Clear,340,2013-03-18 23:55:00
7:15 PM,69.8,50.0,49,29.90,10.0,NNW,9.2,-,N/A,,Clear,330,2013-03-19 00:15:00
7:35 PM,66.2,48.2,52,29.91,10.0,NNW,6.9,-,N/A,,Clear,340,2013-03-19 00:35:00
7:55 PM,64.4,46.4,52,29.92,10.0,NNW,8.1,-,N/A,,Clear,330,2013-03-19 00:55:00
8:15 PM,64.4,46.4,52,29.93,10.0,NNW,9.2,-,N/A,,Clear,340,2013-03-19 01:15:00
8:35 PM,64.4,46.4,52,29.93,10.0,NNW,6.9,-,N/A,,Clear,330,2013-03-19 01:35:00
8:55 PM,62.6,46.4,55,29.95,10.0,North,4.6,-,N/A,,Clear,350,2013-03-19 01:55:00
9:15 PM,60.8,44.6,55,29.96,10.0,North,4.6,-,N/A,,Clear,350,2013-03-19 02:15:00
9:35 PM,60.8,44.6,55,29.97,10.0,North,4.6,-,N/A,,Clear,350,2013-03-19 02:35:00
9:55 PM,60.8,44.6,55,29.98,10.0,North,3.5,-,N/A,,Clear,0,2013-03-19 02:55:00
10:15 PM,59.0,42.8,55,29.99,10.0,North,4.6,-,N/A,,Clear,0,2013-03-19 03:15:00
10:35 PM,57.2,42.8,59,30.01,10.0,North,3.5,-,N/A,,Clear,0,2013-03-19 03:35:00
10:55 PM,55.4,42.8,63,30.02,10.0,NNW,5.8,-,N/A,,Clear,340,2013-03-19 03:55:00
11:15 PM,55.4,42.8,63,30.03,10.0,North,5.8,-,N/A,,Clear,0,2013-03-19 04:15:00
11:35 PM,55.4,42.8,63,30.03,10.0,North,4.6,-,N/A,,Clear,0,2013-03-19 04:35:00
11:55 PM,55.4,42.8,63,30.04,10.0,North,4.6,-,N/A,,Clear,0,2013-03-19 04:55:00